sensor_id;sensor_type;location;lat;lon;timestamp;P1;durP1;ratioP1;P2;durP2;ratioP2
1328;SDS011;658;48.820;9.354;2023-11-22T00:00:30;13.67;;;8.90;;
1328;SDS011;658;48.820;9.354;2023-11-22T00:04:31;15.50;;;8.37;;
1328;SDS011;658;48.820;9.354;2023-11-22T00:08:31;14.20;;;9.50;;
1328;SDS011;658;48.820;9.354;2023-11-22T00:12:33;10.90;;;8.70;;
1328;SDS011;658;48.820;9.354;2023-11-22T00:16:37;14.13;;;8.60;;
1328;SDS011;658;48.820;9.354;2023-11-22T00:20:39;17.13;;;9.27;;
1328;SDS011;658;48.820;9.354;2023-11-22T00:24:42;14.80;;;9.03;;
1328;SDS011;658;48.820;9.354;2023-11-22T00:28:45;11.23;;;8.57;;
1328;SDS011;658;48.820;9.354;2023-11-22T00:32:47;11.47;;;7.93;;
1328;SDS011;658;48.820;9.354;2023-11-22T00:36:47;11.63;;;7.53;;
1328;SDS011;658;48.820;9.354;2023-11-22T00:40:48;14.20;;;8.27;;
1328;SDS011;658;48.820;9.354;2023-11-22T00:44:50;15.43;;;9.50;;
1328;SDS011;658;48.820;9.354;2023-11-22T00:48:50;12.53;;;7.83;;
1328;SDS011;658;48.820;9.354;2023-11-22T00:52:53;13.97;;;8.40;;
1328;SDS011;658;48.820;9.354;2023-11-22T00:56:54;9.80;;;6.90;;
1328;SDS011;658;48.820;9.354;2023-11-22T01:00:55;12.50;;;7.93;;
1328;SDS011;658;48.820;9.354;2023-11-22T01:04:55;12.43;;;7.27;;
1328;SDS011;658;48.820;9.354;2023-11-22T01:08:56;9.47;;;6.67;;
1328;SDS011;658;48.820;9.354;2023-11-22T01:12:58;9.67;;;6.33;;
1328;SDS011;658;48.820;9.354;2023-11-22T01:16:59;8.67;;;6.20;;
1328;SDS011;658;48.820;9.354;2023-11-22T01:21:00;9.83;;;6.80;;
1328;SDS011;658;48.820;9.354;2023-11-22T01:25:00;8.50;;;6.30;;
1328;SDS011;658;48.820;9.354;2023-11-22T01:29:04;9.10;;;6.60;;
1328;SDS011;658;48.820;9.354;2023-11-22T01:33:07;7.20;;;5.77;;
1328;SDS011;658;48.820;9.354;2023-11-22T01:37:10;9.87;;;5.80;;
1328;SDS011;658;48.820;9.354;2023-11-22T01:41:12;8.83;;;6.57;;
1328;SDS011;658;48.820;9.354;2023-11-22T01:45:13;11.10;;;6.60;;
1328;SDS011;658;48.820;9.354;2023-11-22T01:49:14;5.93;;;5.10;;
1328;SDS011;658;48.820;9.354;2023-11-22T01:53:14;8.13;;;5.67;;
1328;SDS011;658;48.820;9.354;2023-11-22T01:57:16;7.73;;;5.87;;
1328;SDS011;658;48.820;9.354;2023-11-22T02:01:17;7.73;;;5.07;;
1328;SDS011;658;48.820;9.354;2023-11-22T02:05:18;6.37;;;4.77;;
1328;SDS011;658;48.820;9.354;2023-11-22T02:09:18;7.27;;;5.23;;
1328;SDS011;658;48.820;9.354;2023-11-22T02:13:22;6.57;;;4.90;;
1328;SDS011;658;48.820;9.354;2023-11-22T02:17:22;5.50;;;4.93;;
1328;SDS011;658;48.820;9.354;2023-11-22T02:21:25;5.90;;;4.10;;
1328;SDS011;658;48.820;9.354;2023-11-22T02:25:26;6.37;;;4.77;;
1328;SDS011;658;48.820;9.354;2023-11-22T02:29:26;7.20;;;4.63;;
1328;SDS011;658;48.820;9.354;2023-11-22T02:33:28;7.33;;;4.93;;
1328;SDS011;658;48.820;9.354;2023-11-22T02:37:28;4.87;;;3.70;;
1328;SDS011;658;48.820;9.354;2023-11-22T02:41:29;5.27;;;4.30;;
1328;SDS011;658;48.820;9.354;2023-11-22T02:45:30;7.80;;;4.43;;
1328;SDS011;658;48.820;9.354;2023-11-22T02:49:30;4.13;;;3.60;;
1328;SDS011;658;48.820;9.354;2023-11-22T02:53:31;4.43;;;3.70;;
1328;SDS011;658;48.820;9.354;2023-11-22T02:57:34;3.93;;;3.53;;
1328;SDS011;658;48.820;9.354;2023-11-22T03:01:35;3.90;;;3.23;;
1328;SDS011;658;48.820;9.354;2023-11-22T03:05:35;7.23;;;4.30;;
1328;SDS011;658;48.820;9.354;2023-11-22T03:09:42;5.67;;;3.27;;
1328;SDS011;658;48.820;9.354;2023-11-22T03:13:46;3.83;;;3.53;;
1328;SDS011;658;48.820;9.354;2023-11-22T03:17:46;5.00;;;3.77;;
1328;SDS011;658;48.820;9.354;2023-11-22T03:21:48;3.57;;;3.17;;
1328;SDS011;658;48.820;9.354;2023-11-22T03:25:51;3.83;;;2.93;;
1328;SDS011;658;48.820;9.354;2023-11-22T03:29:51;4.10;;;3.10;;
1328;SDS011;658;48.820;9.354;2023-11-22T03:33:53;3.33;;;2.90;;
1328;SDS011;658;48.820;9.354;2023-11-22T03:37:54;3.77;;;3.37;;
1328;SDS011;658;48.820;9.354;2023-11-22T03:41:55;3.53;;;3.23;;
1328;SDS011;658;48.820;9.354;2023-11-22T03:45:55;4.13;;;3.30;;
1328;SDS011;658;48.820;9.354;2023-11-22T03:49:56;2.90;;;2.60;;
1328;SDS011;658;48.820;9.354;2023-11-22T03:53:56;3.37;;;2.80;;
1328;SDS011;658;48.820;9.354;2023-11-22T03:57:57;3.20;;;2.40;;
1328;SDS011;658;48.820;9.354;2023-11-22T04:02:00;3.57;;;2.47;;
1328;SDS011;658;48.820;9.354;2023-11-22T04:06:03;3.60;;;2.50;;
1328;SDS011;658;48.820;9.354;2023-11-22T04:10:04;3.60;;;2.40;;
1328;SDS011;658;48.820;9.354;2023-11-22T04:14:08;2.50;;;2.30;;
1328;SDS011;658;48.820;9.354;2023-11-22T04:18:09;2.93;;;2.60;;
1328;SDS011;658;48.820;9.354;2023-11-22T04:22:09;2.40;;;2.20;;
1328;SDS011;658;48.820;9.354;2023-11-22T04:26:10;2.37;;;2.17;;
1328;SDS011;658;48.820;9.354;2023-11-22T04:30:11;2.40;;;2.20;;
1328;SDS011;658;48.820;9.354;2023-11-22T04:34:14;2.97;;;2.30;;
1328;SDS011;658;48.820;9.354;2023-11-22T04:38:15;2.30;;;2.10;;
1328;SDS011;658;48.820;9.354;2023-11-22T04:42:15;2.57;;;2.37;;
1328;SDS011;658;48.820;9.354;2023-11-22T04:46:18;2.23;;;2.03;;
1328;SDS011;658;48.820;9.354;2023-11-22T04:50:24;2.77;;;2.30;;
1328;SDS011;658;48.820;9.354;2023-11-22T04:54:24;2.57;;;2.37;;
1328;SDS011;658;48.820;9.354;2023-11-22T04:58:25;2.30;;;2.10;;
1328;SDS011;658;48.820;9.354;2023-11-22T05:02:25;2.30;;;1.87;;
1328;SDS011;658;48.820;9.354;2023-11-22T05:06:27;1.90;;;1.80;;
1328;SDS011;658;48.820;9.354;2023-11-22T05:10:29;1.90;;;1.70;;
1328;SDS011;658;48.820;9.354;2023-11-22T05:14:29;2.33;;;2.10;;
1328;SDS011;658;48.820;9.354;2023-11-22T05:18:30;1.80;;;1.70;;
1328;SDS011;658;48.820;9.354;2023-11-22T05:22:30;2.20;;;2.00;;
1328;SDS011;658;48.820;9.354;2023-11-22T05:26:31;1.70;;;1.60;;
1328;SDS011;658;48.820;9.354;2023-11-22T05:30:32;1.83;;;1.67;;
1328;SDS011;658;48.820;9.354;2023-11-22T05:34:32;1.80;;;1.70;;
1328;SDS011;658;48.820;9.354;2023-11-22T05:38:33;2.43;;;2.03;;
1328;SDS011;658;48.820;9.354;2023-11-22T05:42:33;1.83;;;1.60;;
1328;SDS011;658;48.820;9.354;2023-11-22T05:46:35;1.80;;;1.60;;
1328;SDS011;658;48.820;9.354;2023-11-22T05:50:39;2.20;;;1.70;;
1328;SDS011;658;48.820;9.354;2023-11-22T05:54:40;2.20;;;2.00;;
1328;SDS011;658;48.820;9.354;2023-11-22T05:58:41;1.63;;;1.53;;
1328;SDS011;658;48.820;9.354;2023-11-22T06:02:41;1.50;;;1.40;;
1328;SDS011;658;48.820;9.354;2023-11-22T06:06:42;1.40;;;1.30;;
1328;SDS011;658;48.820;9.354;2023-11-22T06:10:42;2.27;;;2.07;;
1328;SDS011;658;48.820;9.354;2023-11-22T06:14:43;2.50;;;2.10;;
1328;SDS011;658;48.820;9.354;2023-11-22T06:18:43;1.93;;;1.50;;
1328;SDS011;658;48.820;9.354;2023-11-22T06:22:44;1.30;;;1.20;;
1328;SDS011;658;48.820;9.354;2023-11-22T06:26:45;4.50;;;1.60;;
1328;SDS011;658;48.820;9.354;2023-11-22T06:30:49;1.70;;;1.60;;
1328;SDS011;658;48.820;9.354;2023-11-22T06:34:50;1.67;;;1.53;;
1328;SDS011;658;48.820;9.354;2023-11-22T06:38:51;3.03;;;1.33;;
1328;SDS011;658;48.820;9.354;2023-11-22T06:42:54;1.83;;;1.73;;
1328;SDS011;658;48.820;9.354;2023-11-22T06:46:54;1.60;;;1.40;;
1328;SDS011;658;48.820;9.354;2023-11-22T06:50:55;1.53;;;1.43;;
1328;SDS011;658;48.820;9.354;2023-11-22T06:54:55;1.70;;;1.60;;
1328;SDS011;658;48.820;9.354;2023-11-22T06:58:56;1.70;;;1.60;;
1328;SDS011;658;48.820;9.354;2023-11-22T07:02:57;1.40;;;1.30;;
1328;SDS011;658;48.820;9.354;2023-11-22T07:06:57;1.77;;;1.67;;
1328;SDS011;658;48.820;9.354;2023-11-22T07:11:04;1.20;;;1.10;;
1328;SDS011;658;48.820;9.354;2023-11-22T07:15:10;1.20;;;1.10;;
1328;SDS011;658;48.820;9.354;2023-11-22T07:19:10;1.60;;;1.27;;
1328;SDS011;658;48.820;9.354;2023-11-22T07:23:12;1.50;;;1.40;;
1328;SDS011;658;48.820;9.354;2023-11-22T07:27:14;1.70;;;1.60;;
1328;SDS011;658;48.820;9.354;2023-11-22T07:31:14;1.60;;;1.50;;
1328;SDS011;658;48.820;9.354;2023-11-22T07:35:16;1.43;;;1.30;;
1328;SDS011;658;48.820;9.354;2023-11-22T07:39:19;1.50;;;1.40;;
1328;SDS011;658;48.820;9.354;2023-11-22T07:43:27;1.80;;;1.27;;
1328;SDS011;658;48.820;9.354;2023-11-22T07:47:28;1.30;;;1.20;;
1328;SDS011;658;48.820;9.354;2023-11-22T07:51:28;1.33;;;1.23;;
1328;SDS011;658;48.820;9.354;2023-11-22T07:55:31;1.13;;;1.03;;
1328;SDS011;658;48.820;9.354;2023-11-22T07:59:32;2.23;;;1.03;;
1328;SDS011;658;48.820;9.354;2023-11-22T08:03:32;2.93;;;1.27;;
1328;SDS011;658;48.820;9.354;2023-11-22T08:07:35;1.77;;;1.30;;
1328;SDS011;658;48.820;9.354;2023-11-22T08:11:39;1.30;;;1.10;;
1328;SDS011;658;48.820;9.354;2023-11-22T08:15:41;4.75;;;2.10;;
1328;SDS011;658;48.820;9.354;2023-11-22T08:19:41;2.20;;;1.37;;
1328;SDS011;658;48.820;9.354;2023-11-22T08:23:42;2.80;;;1.37;;
1328;SDS011;658;48.820;9.354;2023-11-22T08:27:45;2.50;;;1.70;;
1328;SDS011;658;48.820;9.354;2023-11-22T08:31:48;3.93;;;1.50;;
1328;SDS011;658;48.820;9.354;2023-11-22T08:35:50;1.50;;;1.40;;
1328;SDS011;658;48.820;9.354;2023-11-22T08:39:58;1.53;;;1.20;;
1328;SDS011;658;48.820;9.354;2023-11-22T08:43:58;2.80;;;1.60;;
1328;SDS011;658;48.820;9.354;2023-11-22T08:48:00;2.73;;;1.10;;
1328;SDS011;658;48.820;9.354;2023-11-22T08:52:00;1.90;;;1.27;;
1328;SDS011;658;48.820;9.354;2023-11-22T08:56:03;1.47;;;1.23;;
1328;SDS011;658;48.820;9.354;2023-11-22T09:00:06;1.37;;;1.20;;
1328;SDS011;658;48.820;9.354;2023-11-22T09:04:09;1.40;;;1.00;;
1328;SDS011;658;48.820;9.354;2023-11-22T09:08:09;1.10;;;0.90;;
1328;SDS011;658;48.820;9.354;2023-11-22T09:12:15;1.47;;;1.37;;
1328;SDS011;658;48.820;9.354;2023-11-22T09:16:16;2.67;;;1.40;;
1328;SDS011;658;48.820;9.354;2023-11-22T09:20:18;1.63;;;1.27;;
1328;SDS011;658;48.820;9.354;2023-11-22T09:24:19;1.43;;;1.00;;
1328;SDS011;658;48.820;9.354;2023-11-22T09:28:22;0.83;;;0.80;;
1328;SDS011;658;48.820;9.354;2023-11-22T09:32:23;1.30;;;1.20;;
1328;SDS011;658;48.820;9.354;2023-11-22T09:36:24;1.23;;;1.13;;
1328;SDS011;658;48.820;9.354;2023-11-22T09:40:27;1.03;;;0.90;;
1328;SDS011;658;48.820;9.354;2023-11-22T09:44:36;3.17;;;1.23;;
1328;SDS011;658;48.820;9.354;2023-11-22T09:48:39;1.17;;;1.00;;
1328;SDS011;658;48.820;9.354;2023-11-22T09:52:41;1.10;;;1.00;;
1328;SDS011;658;48.820;9.354;2023-11-22T09:56:43;1.07;;;1.00;;
1328;SDS011;658;48.820;9.354;2023-11-22T10:00:50;1.10;;;1.07;;
1328;SDS011;658;48.820;9.354;2023-11-22T10:04:53;1.20;;;1.10;;
1328;SDS011;658;48.820;9.354;2023-11-22T10:08:56;1.50;;;1.20;;
1328;SDS011;658;48.820;9.354;2023-11-22T10:12:57;1.33;;;1.20;;
1328;SDS011;658;48.820;9.354;2023-11-22T10:16:58;2.37;;;1.20;;
1328;SDS011;658;48.820;9.354;2023-11-22T10:21:02;1.03;;;0.93;;
1328;SDS011;658;48.820;9.354;2023-11-22T10:25:03;2.33;;;1.37;;
1328;SDS011;658;48.820;9.354;2023-11-22T10:29:07;1.80;;;1.10;;
1328;SDS011;658;48.820;9.354;2023-11-22T10:33:09;1.20;;;1.10;;
1328;SDS011;658;48.820;9.354;2023-11-22T10:37:13;1.00;;;1.00;;
1328;SDS011;658;48.820;9.354;2023-11-22T10:41:14;1.13;;;1.03;;
1328;SDS011;658;48.820;9.354;2023-11-22T10:45:14;1.53;;;1.00;;
1328;SDS011;658;48.820;9.354;2023-11-22T10:49:20;1.00;;;1.00;;
1328;SDS011;658;48.820;9.354;2023-11-22T10:53:21;1.47;;;1.10;;
1328;SDS011;658;48.820;9.354;2023-11-22T10:57:25;1.33;;;1.23;;
1328;SDS011;658;48.820;9.354;2023-11-22T11:01:28;1.13;;;1.00;;
1328;SDS011;658;48.820;9.354;2023-11-22T11:05:30;0.97;;;0.93;;
1328;SDS011;658;48.820;9.354;2023-11-22T11:09:31;0.77;;;0.77;;
1328;SDS011;658;48.820;9.354;2023-11-22T11:13:34;0.90;;;0.90;;
1328;SDS011;658;48.820;9.354;2023-11-22T11:17:35;1.27;;;1.10;;
1328;SDS011;658;48.820;9.354;2023-11-22T11:21:36;1.23;;;0.70;;
1328;SDS011;658;48.820;9.354;2023-11-22T11:25:36;1.30;;;1.20;;
1328;SDS011;658;48.820;9.354;2023-11-22T11:29:38;1.90;;;1.13;;
1328;SDS011;658;48.820;9.354;2023-11-22T11:37:58;1.10;;;0.87;;
1328;SDS011;658;48.820;9.354;2023-11-22T11:42:12;2.50;;;1.00;;
1328;SDS011;658;48.820;9.354;2023-11-22T11:46:14;2.60;;;1.00;;
1328;SDS011;658;48.820;9.354;2023-11-22T11:50:15;1.10;;;1.00;;
1328;SDS011;658;48.820;9.354;2023-11-22T11:54:16;1.77;;;1.10;;
1328;SDS011;658;48.820;9.354;2023-11-22T11:58:16;0.80;;;0.80;;
1328;SDS011;658;48.820;9.354;2023-11-22T12:02:17;0.90;;;0.90;;
1328;SDS011;658;48.820;9.354;2023-11-22T12:06:19;1.50;;;1.10;;
1328;SDS011;658;48.820;9.354;2023-11-22T12:10:19;1.20;;;0.90;;
1328;SDS011;658;48.820;9.354;2023-11-22T12:14:24;1.33;;;1.13;;
1328;SDS011;658;48.820;9.354;2023-11-22T12:18:25;1.10;;;1.00;;
1328;SDS011;658;48.820;9.354;2023-11-22T12:22:26;1.93;;;0.90;;
1328;SDS011;658;48.820;9.354;2023-11-22T12:26:26;0.80;;;0.80;;
1328;SDS011;658;48.820;9.354;2023-11-22T12:30:28;1.50;;;1.10;;
1328;SDS011;658;48.820;9.354;2023-11-22T12:34:32;0.97;;;0.97;;
1328;SDS011;658;48.820;9.354;2023-11-22T12:38:34;1.07;;;1.00;;
1328;SDS011;658;48.820;9.354;2023-11-22T12:42:51;1.10;;;1.00;;
1328;SDS011;658;48.820;9.354;2023-11-22T12:46:53;1.07;;;0.80;;
1328;SDS011;658;48.820;9.354;2023-11-22T12:50:59;1.13;;;0.80;;
1328;SDS011;658;48.820;9.354;2023-11-22T12:55:00;0.90;;;0.90;;
1328;SDS011;658;48.820;9.354;2023-11-22T12:59:00;0.90;;;0.90;;
1328;SDS011;658;48.820;9.354;2023-11-22T13:03:01;0.60;;;0.60;;
1328;SDS011;658;48.820;9.354;2023-11-22T13:07:02;0.90;;;0.90;;
1328;SDS011;658;48.820;9.354;2023-11-22T13:11:03;0.90;;;0.90;;
1328;SDS011;658;48.820;9.354;2023-11-22T13:15:04;1.17;;;1.07;;
1328;SDS011;658;48.820;9.354;2023-11-22T13:19:05;1.20;;;0.90;;
1328;SDS011;658;48.820;9.354;2023-11-22T13:23:06;0.80;;;0.80;;
1328;SDS011;658;48.820;9.354;2023-11-22T13:27:09;0.70;;;0.70;;
1328;SDS011;658;48.820;9.354;2023-11-22T13:31:10;0.83;;;0.83;;
1328;SDS011;658;48.820;9.354;2023-11-22T13:35:12;1.33;;;0.90;;
1328;SDS011;658;48.820;9.354;2023-11-22T13:39:17;1.00;;;1.00;;
1328;SDS011;658;48.820;9.354;2023-11-22T13:43:17;0.80;;;0.80;;
1328;SDS011;658;48.820;9.354;2023-11-22T13:47:20;1.00;;;1.00;;
1328;SDS011;658;48.820;9.354;2023-11-22T13:51:21;1.00;;;1.00;;
1328;SDS011;658;48.820;9.354;2023-11-22T13:55:23;1.20;;;1.10;;
1328;SDS011;658;48.820;9.354;2023-11-22T13:59:24;0.73;;;0.73;;
1328;SDS011;658;48.820;9.354;2023-11-22T14:03:28;0.90;;;0.90;;
1328;SDS011;658;48.820;9.354;2023-11-22T14:07:28;0.90;;;0.90;;
1328;SDS011;658;48.820;9.354;2023-11-22T14:11:29;1.10;;;1.00;;
1328;SDS011;658;48.820;9.354;2023-11-22T14:15:34;0.80;;;0.80;;
1328;SDS011;658;48.820;9.354;2023-11-22T14:19:35;1.07;;;1.07;;
1328;SDS011;658;48.820;9.354;2023-11-22T14:23:35;0.90;;;0.90;;
1328;SDS011;658;48.820;9.354;2023-11-22T14:27:37;0.90;;;0.90;;
1328;SDS011;658;48.820;9.354;2023-11-22T14:31:39;0.90;;;0.90;;
1328;SDS011;658;48.820;9.354;2023-11-22T14:35:40;2.47;;;1.23;;
1328;SDS011;658;48.820;9.354;2023-11-22T14:39:43;0.80;;;0.80;;
1328;SDS011;658;48.820;9.354;2023-11-22T14:43:46;0.77;;;0.77;;
1328;SDS011;658;48.820;9.354;2023-11-22T14:47:50;0.83;;;0.83;;
1328;SDS011;658;48.820;9.354;2023-11-22T14:51:51;1.07;;;1.00;;
1328;SDS011;658;48.820;9.354;2023-11-22T14:55:52;1.37;;;0.87;;
1328;SDS011;658;48.820;9.354;2023-11-22T14:59:52;0.90;;;0.90;;
1328;SDS011;658;48.820;9.354;2023-11-22T15:03:53;1.23;;;1.07;;
1328;SDS011;658;48.820;9.354;2023-11-22T15:07:54;1.20;;;1.10;;
1328;SDS011;658;48.820;9.354;2023-11-22T15:11:58;1.20;;;1.10;;
1328;SDS011;658;48.820;9.354;2023-11-22T15:16:03;1.17;;;1.10;;
1328;SDS011;658;48.820;9.354;2023-11-22T15:20:05;1.20;;;1.10;;
1328;SDS011;658;48.820;9.354;2023-11-22T15:24:10;1.43;;;1.33;;
1328;SDS011;658;48.820;9.354;2023-11-22T15:28:10;1.60;;;1.30;;
1328;SDS011;658;48.820;9.354;2023-11-22T15:32:11;0.90;;;0.90;;
1328;SDS011;658;48.820;9.354;2023-11-22T15:36:11;0.90;;;0.90;;
1328;SDS011;658;48.820;9.354;2023-11-22T15:40:12;1.30;;;1.20;;
1328;SDS011;658;48.820;9.354;2023-11-22T15:44:13;1.20;;;1.10;;
1328;SDS011;658;48.820;9.354;2023-11-22T15:48:15;1.00;;;1.00;;
1328;SDS011;658;48.820;9.354;2023-11-22T15:52:16;1.47;;;1.03;;
1328;SDS011;658;48.820;9.354;2023-11-22T15:56:17;1.17;;;1.17;;
1328;SDS011;658;48.820;9.354;2023-11-22T16:00:19;1.33;;;0.83;;
1328;SDS011;658;48.820;9.354;2023-11-22T16:04:21;1.70;;;1.30;;
1328;SDS011;658;48.820;9.354;2023-11-22T16:08:22;1.53;;;1.30;;
1328;SDS011;658;48.820;9.354;2023-11-22T16:12:25;1.00;;;1.00;;
1328;SDS011;658;48.820;9.354;2023-11-22T16:16:27;1.43;;;1.33;;
1328;SDS011;658;48.820;9.354;2023-11-22T16:20:28;1.40;;;1.30;;
1328;SDS011;658;48.820;9.354;2023-11-22T16:24:29;1.67;;;1.57;;
1328;SDS011;658;48.820;9.354;2023-11-22T16:28:30;1.00;;;1.00;;
1328;SDS011;658;48.820;9.354;2023-11-22T16:32:35;1.30;;;1.23;;
1328;SDS011;658;48.820;9.354;2023-11-22T16:36:39;1.50;;;1.30;;
1328;SDS011;658;48.820;9.354;2023-11-22T16:40:40;1.30;;;1.20;;
1328;SDS011;658;48.820;9.354;2023-11-22T16:44:40;1.37;;;1.37;;
1328;SDS011;658;48.820;9.354;2023-11-22T16:48:43;1.20;;;1.20;;
1328;SDS011;658;48.820;9.354;2023-11-22T16:52:44;1.10;;;1.10;;
1328;SDS011;658;48.820;9.354;2023-11-22T16:56:44;1.17;;;1.17;;
1328;SDS011;658;48.820;9.354;2023-11-22T17:00:45;1.30;;;1.20;;
1328;SDS011;658;48.820;9.354;2023-11-22T17:04:46;1.90;;;1.10;;
1328;SDS011;658;48.820;9.354;2023-11-22T17:08:48;2.20;;;1.20;;
1328;SDS011;658;48.820;9.354;2023-11-22T17:12:49;1.20;;;1.20;;
1328;SDS011;658;48.820;9.354;2023-11-22T17:16:50;1.13;;;1.13;;
1328;SDS011;658;48.820;9.354;2023-11-22T17:20:50;1.37;;;1.30;;
1328;SDS011;658;48.820;9.354;2023-11-22T17:24:51;1.80;;;1.70;;
1328;SDS011;658;48.820;9.354;2023-11-22T17:28:56;1.37;;;1.27;;
1328;SDS011;658;48.820;9.354;2023-11-22T17:32:57;1.37;;;1.27;;
1328;SDS011;658;48.820;9.354;2023-11-22T17:36:57;1.50;;;1.40;;
1328;SDS011;658;48.820;9.354;2023-11-22T17:41:03;1.60;;;1.50;;
1328;SDS011;658;48.820;9.354;2023-11-22T17:45:04;1.30;;;1.20;;
1328;SDS011;658;48.820;9.354;2023-11-22T17:49:05;1.00;;;1.00;;
1328;SDS011;658;48.820;9.354;2023-11-22T17:53:05;1.37;;;1.27;;
1328;SDS011;658;48.820;9.354;2023-11-22T17:57:06;1.00;;;1.00;;
1328;SDS011;658;48.820;9.354;2023-11-22T18:01:09;1.30;;;1.20;;
1328;SDS011;658;48.820;9.354;2023-11-22T18:05:10;4.17;;;3.30;;
1328;SDS011;658;48.820;9.354;2023-11-22T18:09:10;7.10;;;4.13;;
1328;SDS011;658;48.820;9.354;2023-11-22T18:13:11;10.83;;;7.87;;
1328;SDS011;658;48.820;9.354;2023-11-22T18:17:11;19.70;;;13.97;;
1328;SDS011;658;48.820;9.354;2023-11-22T18:21:12;30.00;;;19.37;;
1328;SDS011;658;48.820;9.354;2023-11-22T18:25:15;43.40;;;26.30;;
1328;SDS011;658;48.820;9.354;2023-11-22T18:29:16;50.87;;;30.90;;
1328;SDS011;658;48.820;9.354;2023-11-22T18:33:21;64.03;;;34.77;;
1328;SDS011;658;48.820;9.354;2023-11-22T18:37:22;75.83;;;42.63;;
1328;SDS011;658;48.820;9.354;2023-11-22T18:41:23;64.43;;;41.40;;
1328;SDS011;658;48.820;9.354;2023-11-22T18:45:26;69.73;;;39.93;;
1328;SDS011;658;48.820;9.354;2023-11-22T18:49:27;61.37;;;38.47;;
1328;SDS011;658;48.820;9.354;2023-11-22T18:53:30;57.40;;;32.87;;
1328;SDS011;658;48.820;9.354;2023-11-22T18:57:32;49.03;;;32.43;;
1328;SDS011;658;48.820;9.354;2023-11-22T19:01:32;55.73;;;32.10;;
1328;SDS011;658;48.820;9.354;2023-11-22T19:05:34;49.97;;;31.77;;
1328;SDS011;658;48.820;9.354;2023-11-22T19:09:36;52.23;;;30.63;;
1328;SDS011;658;48.820;9.354;2023-11-22T19:13:39;43.10;;;27.00;;
1328;SDS011;658;48.820;9.354;2023-11-22T19:17:42;40.63;;;25.67;;
1328;SDS011;658;48.820;9.354;2023-11-22T19:21:43;35.33;;;25.80;;
1328;SDS011;658;48.820;9.354;2023-11-22T19:25:43;42.23;;;25.13;;
1328;SDS011;658;48.820;9.354;2023-11-22T19:29:44;41.37;;;24.03;;
1328;SDS011;658;48.820;9.354;2023-11-22T19:33:46;38.57;;;21.13;;
1328;SDS011;658;48.820;9.354;2023-11-22T19:37:46;33.37;;;21.67;;
1328;SDS011;658;48.820;9.354;2023-11-22T19:41:50;28.00;;;19.47;;
1328;SDS011;658;48.820;9.354;2023-11-22T19:45:53;32.23;;;20.73;;
1328;SDS011;658;48.820;9.354;2023-11-22T19:49:54;27.13;;;18.07;;
1328;SDS011;658;48.820;9.354;2023-11-22T19:53:54;32.50;;;18.63;;
1328;SDS011;658;48.820;9.354;2023-11-22T19:57:55;27.90;;;18.00;;
1328;SDS011;658;48.820;9.354;2023-11-22T20:01:57;26.00;;;16.00;;
1328;SDS011;658;48.820;9.354;2023-11-22T20:05:59;25.73;;;16.90;;
1328;SDS011;658;48.820;9.354;2023-11-22T20:10:00;23.87;;;16.00;;
1328;SDS011;658;48.820;9.354;2023-11-22T20:14:03;21.27;;;14.90;;
1328;SDS011;658;48.820;9.354;2023-11-22T20:18:05;21.70;;;14.00;;
1328;SDS011;658;48.820;9.354;2023-11-22T20:22:07;22.17;;;14.17;;
1328;SDS011;658;48.820;9.354;2023-11-22T20:26:10;20.40;;;14.50;;
1328;SDS011;658;48.820;9.354;2023-11-22T20:30:11;21.70;;;13.73;;
1328;SDS011;658;48.820;9.354;2023-11-22T20:34:12;18.23;;;12.70;;
1328;SDS011;658;48.820;9.354;2023-11-22T20:38:15;20.27;;;11.80;;
1328;SDS011;658;48.820;9.354;2023-11-22T20:42:15;18.60;;;12.50;;
1328;SDS011;658;48.820;9.354;2023-11-22T20:46:16;17.03;;;12.10;;
1328;SDS011;658;48.820;9.354;2023-11-22T20:50:17;16.57;;;11.30;;
1328;SDS011;658;48.820;9.354;2023-11-22T20:54:17;14.33;;;10.70;;
1328;SDS011;658;48.820;9.354;2023-11-22T20:58:18;13.33;;;9.97;;
1328;SDS011;658;48.820;9.354;2023-11-22T21:02:19;14.70;;;10.73;;
1328;SDS011;658;48.820;9.354;2023-11-22T21:06:19;14.03;;;9.83;;
1328;SDS011;658;48.820;9.354;2023-11-22T21:10:20;13.43;;;9.30;;
1328;SDS011;658;48.820;9.354;2023-11-22T21:14:21;13.17;;;8.77;;
1328;SDS011;658;48.820;9.354;2023-11-22T21:18:23;12.60;;;9.73;;
1328;SDS011;658;48.820;9.354;2023-11-22T21:22:26;13.70;;;8.87;;
1328;SDS011;658;48.820;9.354;2023-11-22T21:26:30;15.13;;;9.10;;
1328;SDS011;658;48.820;9.354;2023-11-22T21:30:31;11.40;;;8.10;;
1328;SDS011;658;48.820;9.354;2023-11-22T21:34:32;9.80;;;7.50;;
1328;SDS011;658;48.820;9.354;2023-11-22T21:38:35;10.33;;;8.20;;
1328;SDS011;658;48.820;9.354;2023-11-22T21:42:36;12.20;;;8.50;;
1328;SDS011;658;48.820;9.354;2023-11-22T21:46:39;9.23;;;7.40;;
1328;SDS011;658;48.820;9.354;2023-11-22T21:50:39;10.20;;;6.90;;
1328;SDS011;658;48.820;9.354;2023-11-22T21:54:40;6.77;;;5.80;;
1328;SDS011;658;48.820;9.354;2023-11-22T21:58:40;6.63;;;5.93;;
1328;SDS011;658;48.820;9.354;2023-11-22T22:02:42;11.80;;;7.30;;
1328;SDS011;658;48.820;9.354;2023-11-22T22:06:42;6.90;;;5.90;;
1328;SDS011;658;48.820;9.354;2023-11-22T22:10:44;9.53;;;5.93;;
1328;SDS011;658;48.820;9.354;2023-11-22T22:14:45;7.20;;;5.80;;
1328;SDS011;658;48.820;9.354;2023-11-22T22:18:48;7.17;;;6.20;;
1328;SDS011;658;48.820;9.354;2023-11-22T22:22:49;8.23;;;5.20;;
1328;SDS011;658;48.820;9.354;2023-11-22T22:26:49;6.03;;;5.20;;
1328;SDS011;658;48.820;9.354;2023-11-22T22:30:52;6.63;;;5.70;;
1328;SDS011;658;48.820;9.354;2023-11-22T22:34:53;6.27;;;5.40;;
1328;SDS011;658;48.820;9.354;2023-11-22T22:38:55;5.87;;;5.20;;
1328;SDS011;658;48.820;9.354;2023-11-22T22:42:56;7.50;;;5.20;;
1328;SDS011;658;48.820;9.354;2023-11-22T22:46:57;6.23;;;4.60;;
1328;SDS011;658;48.820;9.354;2023-11-22T22:50:58;5.07;;;4.53;;
1328;SDS011;658;48.820;9.354;2023-11-22T22:54:59;6.40;;;4.97;;
1328;SDS011;658;48.820;9.354;2023-11-22T22:58:59;5.10;;;4.57;;
1328;SDS011;658;48.820;9.354;2023-11-22T23:03:00;5.97;;;4.30;;
1328;SDS011;658;48.820;9.354;2023-11-22T23:07:00;9.30;;;4.97;;
1328;SDS011;658;48.820;9.354;2023-11-22T23:11:01;5.90;;;4.47;;
1328;SDS011;658;48.820;9.354;2023-11-22T23:15:02;5.90;;;4.30;;
1328;SDS011;658;48.820;9.354;2023-11-22T23:19:03;5.13;;;4.10;;
1328;SDS011;658;48.820;9.354;2023-11-22T23:23:03;5.57;;;4.13;;
1328;SDS011;658;48.820;9.354;2023-11-22T23:27:04;3.93;;;3.53;;
1328;SDS011;658;48.820;9.354;2023-11-22T23:31:06;4.23;;;3.83;;
1328;SDS011;658;48.820;9.354;2023-11-22T23:35:06;3.73;;;3.43;;
1328;SDS011;658;48.820;9.354;2023-11-22T23:39:11;4.27;;;3.87;;
1328;SDS011;658;48.820;9.354;2023-11-22T23:43:12;3.83;;;3.50;;
1328;SDS011;658;48.820;9.354;2023-11-22T23:47:13;4.20;;;3.50;;
1328;SDS011;658;48.820;9.354;2023-11-22T23:51:15;4.10;;;3.33;;
1328;SDS011;658;48.820;9.354;2023-11-22T23:55:15;3.80;;;3.50;;
1328;SDS011;658;48.820;9.354;2023-11-22T23:59:16;3.40;;;3.10;;
